sensor_id;sensor_type;location;lat;lon;timestamp;temperature;humidity
48686;DHT22;34485;51.536;3.816;2024-03-08T07:27:27;3.90;99.90
48686;DHT22;34485;51.536;3.816;2024-03-08T07:32:21;3.90;99.90
48686;DHT22;34485;51.536;3.816;2024-03-08T07:34:49;3.90;99.90
48686;DHT22;34485;51.536;3.816;2024-03-08T07:37:16;4.00;99.90
48686;DHT22;34485;51.536;3.816;2024-03-08T07:39:42;4.10;99.90
48686;DHT22;34485;51.536;3.816;2024-03-08T07:42:09;4.20;99.90
48686;DHT22;34485;51.536;3.816;2024-03-08T07:44:35;4.40;99.90
48686;DHT22;34485;51.536;3.816;2024-03-08T07:47:01;4.40;99.90
48686;DHT22;34485;51.536;3.816;2024-03-08T07:51:53;4.60;99.90
48686;DHT22;34485;51.536;3.816;2024-03-08T07:54:18;4.80;99.90
48686;DHT22;34485;51.536;3.816;2024-03-08T07:56:45;4.80;99.90
48686;DHT22;34485;51.536;3.816;2024-03-08T07:59:12;5.30;99.90
48686;DHT22;34485;51.536;3.816;2024-03-08T08:01:38;5.20;99.90
48686;DHT22;34485;51.536;3.816;2024-03-08T08:04:04;5.30;99.90
48686;DHT22;34485;51.536;3.816;2024-03-08T08:06:30;5.50;99.90
48686;DHT22;34485;51.536;3.816;2024-03-08T08:16:25;5.90;99.90
48686;DHT22;34485;51.536;3.816;2024-03-08T08:18:51;5.90;99.90
48686;DHT22;34485;51.536;3.816;2024-03-08T08:23:44;6.20;99.90
48686;DHT22;34485;51.536;3.816;2024-03-08T08:43:15;6.90;99.90
48686;DHT22;34485;51.536;3.816;2024-03-08T08:45:41;6.80;99.90
48686;DHT22;34485;51.536;3.816;2024-03-08T08:50:35;6.90;99.90
48686;DHT22;34485;51.536;3.816;2024-03-08T08:53:02;6.80;99.90
48686;DHT22;34485;51.536;3.816;2024-03-08T08:55:29;6.80;99.90
48686;DHT22;34485;51.536;3.816;2024-03-08T09:00:22;7.20;99.90
48686;DHT22;34485;51.536;3.816;2024-03-08T09:02:52;7.10;99.90
48686;DHT22;34485;51.536;3.816;2024-03-08T09:05:20;7.30;99.90
48686;DHT22;34485;51.536;3.816;2024-03-08T09:10:13;7.40;99.90
48686;DHT22;34485;51.536;3.816;2024-03-08T09:12:40;7.70;99.90
48686;DHT22;34485;51.536;3.816;2024-03-08T09:15:06;7.70;99.20
48686;DHT22;34485;51.536;3.816;2024-03-08T09:17:36;7.60;99.90
48686;DHT22;34485;51.536;3.816;2024-03-08T09:20:06;7.70;99.00
48686;DHT22;34485;51.536;3.816;2024-03-08T09:22:32;7.50;97.00
48686;DHT22;34485;51.536;3.816;2024-03-08T09:32:16;7.80;97.80
48686;DHT22;34485;51.536;3.816;2024-03-08T09:34:42;7.80;96.40
48686;DHT22;34485;51.536;3.816;2024-03-08T09:37:08;8.00;98.40
48686;DHT22;34485;51.536;3.816;2024-03-08T09:39:34;8.10;95.40
48686;DHT22;34485;51.536;3.816;2024-03-08T09:46:55;8.60;94.30
48686;DHT22;34485;51.536;3.816;2024-03-08T09:49:21;8.40;94.50
48686;DHT22;34485;51.536;3.816;2024-03-08T09:51:47;8.30;92.40
48686;DHT22;34485;51.536;3.816;2024-03-08T09:56:43;8.50;97.40
48686;DHT22;34485;51.536;3.816;2024-03-08T09:59:10;8.60;93.20
48686;DHT22;34485;51.536;3.816;2024-03-08T10:01:38;8.40;94.70
48686;DHT22;34485;51.536;3.816;2024-03-08T10:04:04;8.50;96.90
48686;DHT22;34485;51.536;3.816;2024-03-08T10:08:57;8.60;94.80
48686;DHT22;34485;51.536;3.816;2024-03-08T10:11:24;8.50;93.60
48686;DHT22;34485;51.536;3.816;2024-03-08T10:13:50;8.60;93.00
48686;DHT22;34485;51.536;3.816;2024-03-08T10:16:16;8.80;95.20
48686;DHT22;34485;51.536;3.816;2024-03-08T10:18:47;9.10;94.00
48686;DHT22;34485;51.536;3.816;2024-03-08T10:21:13;9.00;92.20
48686;DHT22;34485;51.536;3.816;2024-03-08T10:28:45;9.40;99.90
48686;DHT22;34485;51.536;3.816;2024-03-08T10:41:06;9.30;91.60
48686;DHT22;34485;51.536;3.816;2024-03-08T10:49:37;9.50;90.00
48686;DHT22;34485;51.536;3.816;2024-03-08T11:01:57;9.50;89.50
48686;DHT22;34485;51.536;3.816;2024-03-08T11:04:22;9.60;90.00
48686;DHT22;34485;51.536;3.816;2024-03-08T11:06:50;9.40;91.10
48686;DHT22;34485;51.536;3.816;2024-03-08T11:14:47;9.40;84.40
48686;DHT22;34485;51.536;3.816;2024-03-08T11:17:15;9.50;86.80
48686;DHT22;34485;51.536;3.816;2024-03-08T11:19:47;9.60;91.70
48686;DHT22;34485;51.536;3.816;2024-03-08T11:22:29;9.70;85.70
48686;DHT22;34485;51.536;3.816;2024-03-08T11:25:09;9.60;87.90
48686;DHT22;34485;51.536;3.816;2024-03-08T11:27:38;9.70;91.60
48686;DHT22;34485;51.536;3.816;2024-03-08T11:30:08;9.90;87.70
48686;DHT22;34485;51.536;3.816;2024-03-08T11:32:38;9.90;87.70
48686;DHT22;34485;51.536;3.816;2024-03-08T11:35:07;9.90;81.40
48686;DHT22;34485;51.536;3.816;2024-03-08T12:43:06;10.00;99.90
48686;DHT22;34485;51.536;3.816;2024-03-08T12:45:32;10.10;99.80
48686;DHT22;34485;51.536;3.816;2024-03-08T12:47:58;10.20;92.40
48686;DHT22;34485;51.536;3.816;2024-03-08T12:50:25;10.20;99.60
48686;DHT22;34485;51.536;3.816;2024-03-08T12:52:51;10.20;96.70
48686;DHT22;34485;51.536;3.816;2024-03-08T12:55:20;10.20;98.20
48686;DHT22;34485;51.536;3.816;2024-03-08T12:57:45;10.20;99.90
48686;DHT22;34485;51.536;3.816;2024-03-08T13:00:12;10.30;99.90
48686;DHT22;34485;51.536;3.816;2024-03-08T13:02:47;10.30;97.00
48686;DHT22;34485;51.536;3.816;2024-03-08T13:05:13;10.20;99.90
48686;DHT22;34485;51.536;3.816;2024-03-08T13:07:40;10.30;99.90
48686;DHT22;34485;51.536;3.816;2024-03-08T13:10:10;10.40;99.90
48686;DHT22;34485;51.536;3.816;2024-03-08T13:12:40;10.50;99.90
48686;DHT22;34485;51.536;3.816;2024-03-08T13:15:08;10.50;99.90
48686;DHT22;34485;51.536;3.816;2024-03-08T13:17:34;10.50;83.50
48686;DHT22;34485;51.536;3.816;2024-03-08T13:20:00;10.50;80.90
48686;DHT22;34485;51.536;3.816;2024-03-08T13:22:26;10.50;82.60
48686;DHT22;34485;51.536;3.816;2024-03-08T13:44:44;10.50;89.40
48686;DHT22;34485;51.536;3.816;2024-03-08T13:56:57;10.60;83.90
48686;DHT22;34485;51.536;3.816;2024-03-08T14:33:49;10.70;90.30
48686;DHT22;34485;51.536;3.816;2024-03-08T14:36:15;10.80;88.80
48686;DHT22;34485;51.536;3.816;2024-03-08T14:38:43;10.90;88.90
48686;DHT22;34485;51.536;3.816;2024-03-08T14:41:08;10.90;86.00
48686;DHT22;34485;51.536;3.816;2024-03-08T14:43:34;10.80;85.20
48686;DHT22;34485;51.536;3.816;2024-03-08T14:46:00;10.80;82.80
48686;DHT22;34485;51.536;3.816;2024-03-08T14:48:26;10.80;77.80
48686;DHT22;34485;51.536;3.816;2024-03-08T14:53:18;10.80;95.60
48686;DHT22;34485;51.536;3.816;2024-03-08T14:55:44;10.80;95.90
48686;DHT22;34485;51.536;3.816;2024-03-08T14:58:13;10.80;99.90
48686;DHT22;34485;51.536;3.816;2024-03-08T15:00:39;10.80;99.90
48686;DHT22;34485;51.536;3.816;2024-03-08T15:03:07;10.80;85.50
48686;DHT22;34485;51.536;3.816;2024-03-08T15:05:36;10.90;88.00
48686;DHT22;34485;51.536;3.816;2024-03-08T15:08:07;10.80;83.10
48686;DHT22;34485;51.536;3.816;2024-03-08T15:10:36;10.80;83.20
48686;DHT22;34485;51.536;3.816;2024-03-08T15:13:02;10.80;84.20
48686;DHT22;34485;51.536;3.816;2024-03-08T15:15:33;10.80;85.80
48686;DHT22;34485;51.536;3.816;2024-03-08T15:17:59;10.90;84.80
48686;DHT22;34485;51.536;3.816;2024-03-08T15:20:25;10.80;84.20
48686;DHT22;34485;51.536;3.816;2024-03-08T15:22:54;10.90;82.70
48686;DHT22;34485;51.536;3.816;2024-03-08T15:25:24;10.80;84.70
48686;DHT22;34485;51.536;3.816;2024-03-08T15:27:53;10.80;76.30
48686;DHT22;34485;51.536;3.816;2024-03-08T15:30:19;10.80;84.20
48686;DHT22;34485;51.536;3.816;2024-03-08T15:32:49;10.80;77.60
48686;DHT22;34485;51.536;3.816;2024-03-08T15:35:25;10.80;80.30
48686;DHT22;34485;51.536;3.816;2024-03-08T15:37:51;10.80;81.20
48686;DHT22;34485;51.536;3.816;2024-03-08T15:40:18;10.70;80.10
48686;DHT22;34485;51.536;3.816;2024-03-08T15:52:42;10.80;94.00
48686;DHT22;34485;51.536;3.816;2024-03-08T15:55:08;10.70;80.30
48686;DHT22;34485;51.536;3.816;2024-03-08T15:57:34;10.80;77.70
48686;DHT22;34485;51.536;3.816;2024-03-08T16:00:04;10.70;85.60
48686;DHT22;34485;51.536;3.816;2024-03-08T16:02:41;10.80;96.50
48686;DHT22;34485;51.536;3.816;2024-03-08T16:05:07;10.80;98.90
48686;DHT22;34485;51.536;3.816;2024-03-08T16:07:33;10.70;98.40
48686;DHT22;34485;51.536;3.816;2024-03-08T16:09:58;10.60;86.30
48686;DHT22;34485;51.536;3.816;2024-03-08T16:12:24;10.60;86.50
48686;DHT22;34485;51.536;3.816;2024-03-08T16:14:50;10.50;90.10
48686;DHT22;34485;51.536;3.816;2024-03-08T17:18:23;9.50;88.40
48686;DHT22;34485;51.536;3.816;2024-03-08T17:20:48;9.50;90.10
48686;DHT22;34485;51.536;3.816;2024-03-08T17:23:14;9.50;99.90
48686;DHT22;34485;51.536;3.816;2024-03-08T17:25:41;9.40;99.90
48686;DHT22;34485;51.536;3.816;2024-03-08T17:28:07;9.40;99.90
48686;DHT22;34485;51.536;3.816;2024-03-08T17:30:34;9.40;99.90
48686;DHT22;34485;51.536;3.816;2024-03-08T17:50:24;11.00;92.10
48686;DHT22;34485;51.536;3.816;2024-03-08T17:52:51;8.90;92.20
48686;DHT22;34485;51.536;3.816;2024-03-08T17:55:17;8.80;92.60
48686;DHT22;34485;51.536;3.816;2024-03-08T17:57:47;8.80;91.60
48686;DHT22;34485;51.536;3.816;2024-03-08T18:00:18;8.80;92.30
48686;DHT22;34485;51.536;3.816;2024-03-08T18:02:48;8.90;91.20
48686;DHT22;34485;51.536;3.816;2024-03-08T18:05:21;8.90;91.50
48686;DHT22;34485;51.536;3.816;2024-03-08T18:07:50;8.90;91.30
48686;DHT22;34485;51.536;3.816;2024-03-08T18:10:16;8.90;90.70
48686;DHT22;34485;51.536;3.816;2024-03-08T18:12:50;8.90;91.60
48686;DHT22;34485;51.536;3.816;2024-03-08T18:15:18;8.80;91.00
48686;DHT22;34485;51.536;3.816;2024-03-08T18:18:02;8.80;90.30
48686;DHT22;34485;51.536;3.816;2024-03-08T18:20:33;8.70;91.90
48686;DHT22;34485;51.536;3.816;2024-03-08T18:23:03;8.70;91.90
48686;DHT22;34485;51.536;3.816;2024-03-08T18:25:30;8.70;91.70
48686;DHT22;34485;51.536;3.816;2024-03-08T18:27:58;8.60;92.30
48686;DHT22;34485;51.536;3.816;2024-03-08T18:30:31;8.70;92.50
48686;DHT22;34485;51.536;3.816;2024-03-08T18:32:57;8.60;93.60
48686;DHT22;34485;51.536;3.816;2024-03-08T18:35:22;8.50;95.40
48686;DHT22;34485;51.536;3.816;2024-03-08T18:37:48;8.50;96.20
48686;DHT22;34485;51.536;3.816;2024-03-08T18:40:18;8.40;95.90
48686;DHT22;34485;51.536;3.816;2024-03-08T18:42:49;8.40;96.70
48686;DHT22;34485;51.536;3.816;2024-03-08T18:45:16;8.30;96.60
48686;DHT22;34485;51.536;3.816;2024-03-08T18:47:47;8.30;96.70
48686;DHT22;34485;51.536;3.816;2024-03-08T18:50:15;8.30;95.80
48686;DHT22;34485;51.536;3.816;2024-03-08T18:52:42;8.30;95.10
48686;DHT22;34485;51.536;3.816;2024-03-08T18:55:09;8.40;99.90
48686;DHT22;34485;51.536;3.816;2024-03-08T18:57:38;8.40;99.90
48686;DHT22;34485;51.536;3.816;2024-03-08T19:00:13;8.40;99.90
48686;DHT22;34485;51.536;3.816;2024-03-08T19:02:47;8.40;99.90
48686;DHT22;34485;51.536;3.816;2024-03-08T19:05:12;8.40;99.90
48686;DHT22;34485;51.536;3.816;2024-03-08T19:07:46;8.30;99.90
48686;DHT22;34485;51.536;3.816;2024-03-08T19:10:13;8.30;99.90
48686;DHT22;34485;51.536;3.816;2024-03-08T19:12:47;8.20;99.90
48686;DHT22;34485;51.536;3.816;2024-03-08T19:49:33;7.10;99.90
48686;DHT22;34485;51.536;3.816;2024-03-08T19:51:59;7.00;99.90
48686;DHT22;34485;51.536;3.816;2024-03-08T19:54:25;7.00;99.90
48686;DHT22;34485;51.536;3.816;2024-03-08T19:56:51;7.00;99.90
48686;DHT22;34485;51.536;3.816;2024-03-08T19:59:19;7.00;99.90
48686;DHT22;34485;51.536;3.816;2024-03-08T20:01:45;7.00;99.90
48686;DHT22;34485;51.536;3.816;2024-03-08T20:04:11;7.00;99.90
48686;DHT22;34485;51.536;3.816;2024-03-08T20:06:39;7.10;99.90
48686;DHT22;34485;51.536;3.816;2024-03-08T20:09:11;7.10;99.90
48686;DHT22;34485;51.536;3.816;2024-03-08T20:11:37;7.20;99.90
48686;DHT22;34485;51.536;3.816;2024-03-08T20:14:04;7.20;99.90
48686;DHT22;34485;51.536;3.816;2024-03-08T20:16:30;7.30;99.90
48686;DHT22;34485;51.536;3.816;2024-03-08T20:18:56;7.40;99.90
48686;DHT22;34485;51.536;3.816;2024-03-08T20:21:28;7.30;99.90
48686;DHT22;34485;51.536;3.816;2024-03-08T20:23:54;7.30;99.90
48686;DHT22;34485;51.536;3.816;2024-03-08T20:26:19;7.20;99.90
48686;DHT22;34485;51.536;3.816;2024-03-08T20:28:47;7.20;99.90
48686;DHT22;34485;51.536;3.816;2024-03-08T20:31:13;7.10;99.90
48686;DHT22;34485;51.536;3.816;2024-03-08T20:33:39;7.00;99.90
48686;DHT22;34485;51.536;3.816;2024-03-08T20:36:07;7.00;99.90
48686;DHT22;34485;51.536;3.816;2024-03-08T20:38:35;7.00;99.90
48686;DHT22;34485;51.536;3.816;2024-03-08T20:41:03;6.90;99.90
48686;DHT22;34485;51.536;3.816;2024-03-08T20:43:39;6.80;99.90
48686;DHT22;34485;51.536;3.816;2024-03-08T20:46:06;6.70;99.90
48686;DHT22;34485;51.536;3.816;2024-03-08T20:48:32;6.60;99.90
48686;DHT22;34485;51.536;3.816;2024-03-08T20:51:01;6.60;99.90
48686;DHT22;34485;51.536;3.816;2024-03-08T20:53:27;6.60;99.90
48686;DHT22;34485;51.536;3.816;2024-03-08T20:55:56;6.60;99.90
48686;DHT22;34485;51.536;3.816;2024-03-08T21:08:19;6.90;99.90
48686;DHT22;34485;51.536;3.816;2024-03-08T21:10:50;6.90;99.90
48686;DHT22;34485;51.536;3.816;2024-03-08T21:13:24;7.00;99.90
48686;DHT22;34485;51.536;3.816;2024-03-08T21:15:51;7.00;99.90
48686;DHT22;34485;51.536;3.816;2024-03-08T21:18:18;7.00;99.90
48686;DHT22;34485;51.536;3.816;2024-03-08T21:20:44;7.10;99.90
48686;DHT22;34485;51.536;3.816;2024-03-08T21:23:10;7.10;99.90
48686;DHT22;34485;51.536;3.816;2024-03-08T21:25:40;7.20;99.90
48686;DHT22;34485;51.536;3.816;2024-03-08T21:28:08;7.20;99.90
48686;DHT22;34485;51.536;3.816;2024-03-08T21:33:00;7.70;99.90
48686;DHT22;34485;51.536;3.816;2024-03-08T21:42:56;7.80;99.90
48686;DHT22;34485;51.536;3.816;2024-03-08T21:45:23;7.80;99.90
48686;DHT22;34485;51.536;3.816;2024-03-08T21:47:56;7.80;99.90
48686;DHT22;34485;51.536;3.816;2024-03-08T21:50:25;7.80;99.90
48686;DHT22;34485;51.536;3.816;2024-03-08T21:52:53;7.80;99.90
48686;DHT22;34485;51.536;3.816;2024-03-08T21:55:18;7.90;99.90
48686;DHT22;34485;51.536;3.816;2024-03-08T21:57:45;7.80;99.90
48686;DHT22;34485;51.536;3.816;2024-03-08T22:00:16;7.80;99.90
48686;DHT22;34485;51.536;3.816;2024-03-08T22:02:46;7.80;99.90
48686;DHT22;34485;51.536;3.816;2024-03-08T22:05:12;7.80;99.90
48686;DHT22;34485;51.536;3.816;2024-03-08T22:07:45;7.80;99.90
48686;DHT22;34485;51.536;3.816;2024-03-08T22:10:11;7.80;99.90
48686;DHT22;34485;51.536;3.816;2024-03-08T22:12:50;7.80;99.90
48686;DHT22;34485;51.536;3.816;2024-03-08T22:15:17;7.70;99.90
48686;DHT22;34485;51.536;3.816;2024-03-08T22:17:43;7.70;99.90
48686;DHT22;34485;51.536;3.816;2024-03-08T22:20:13;7.70;99.90
48686;DHT22;34485;51.536;3.816;2024-03-08T22:22:52;7.70;99.90
48686;DHT22;34485;51.536;3.816;2024-03-08T22:25:19;7.70;99.90
48686;DHT22;34485;51.536;3.816;2024-03-08T22:27:47;7.80;99.90
48686;DHT22;34485;51.536;3.816;2024-03-08T22:30:19;7.80;99.90
48686;DHT22;34485;51.536;3.816;2024-03-08T22:32:45;7.80;99.90
48686;DHT22;34485;51.536;3.816;2024-03-08T22:35:14;7.80;99.90
48686;DHT22;34485;51.536;3.816;2024-03-08T22:37:40;7.80;99.90
48686;DHT22;34485;51.536;3.816;2024-03-08T22:40:07;7.80;99.90
48686;DHT22;34485;51.536;3.816;2024-03-08T22:42:39;7.80;99.90
48686;DHT22;34485;51.536;3.816;2024-03-08T22:45:06;7.80;99.90
48686;DHT22;34485;51.536;3.816;2024-03-08T22:47:38;7.80;99.90
48686;DHT22;34485;51.536;3.816;2024-03-08T22:50:05;7.70;99.90
48686;DHT22;34485;51.536;3.816;2024-03-08T22:52:31;7.70;99.90
48686;DHT22;34485;51.536;3.816;2024-03-08T22:54:57;7.70;99.90
48686;DHT22;34485;51.536;3.816;2024-03-08T22:57:24;7.70;99.90
48686;DHT22;34485;51.536;3.816;2024-03-08T22:59:49;7.70;99.90
48686;DHT22;34485;51.536;3.816;2024-03-08T23:02:16;7.70;99.90
48686;DHT22;34485;51.536;3.816;2024-03-08T23:04:44;7.70;99.90
48686;DHT22;34485;51.536;3.816;2024-03-08T23:07:10;7.70;99.90
48686;DHT22;34485;51.536;3.816;2024-03-08T23:09:36;7.70;99.90
48686;DHT22;34485;51.536;3.816;2024-03-08T23:12:03;7.70;99.90
48686;DHT22;34485;51.536;3.816;2024-03-08T23:14:31;7.60;99.90
48686;DHT22;34485;51.536;3.816;2024-03-08T23:16:57;7.60;99.90
48686;DHT22;34485;51.536;3.816;2024-03-08T23:19:25;7.60;99.90
48686;DHT22;34485;51.536;3.816;2024-03-08T23:21:56;7.60;99.90
48686;DHT22;34485;51.536;3.816;2024-03-08T23:24:25;7.60;99.90
48686;DHT22;34485;51.536;3.816;2024-03-08T23:26:53;7.50;99.90
48686;DHT22;34485;51.536;3.816;2024-03-08T23:29:18;7.50;99.90
48686;DHT22;34485;51.536;3.816;2024-03-08T23:31:45;7.50;99.90
48686;DHT22;34485;51.536;3.816;2024-03-08T23:41:36;7.20;99.90
48686;DHT22;34485;51.536;3.816;2024-03-08T23:44:06;7.20;99.90
48686;DHT22;34485;51.536;3.816;2024-03-08T23:46:33;7.20;99.90
48686;DHT22;34485;51.536;3.816;2024-03-08T23:49:01;7.20;99.90
48686;DHT22;34485;51.536;3.816;2024-03-08T23:51:27;7.20;99.90
48686;DHT22;34485;51.536;3.816;2024-03-08T23:53:54;7.20;99.90
